sensor_id;sensor_type;location;lat;lon;timestamp;P1;durP1;ratioP1;P2;durP2;ratioP2
73132;SDS011;61320;52.008;4.530;2022-07-19T16:06:45;3.83;;;3.83;;
73132;SDS011;61320;52.008;4.530;2022-07-19T16:09:10;3.47;;;3.47;;
73132;SDS011;61320;52.008;4.530;2022-07-19T16:11:36;3.53;;;3.53;;
73132;SDS011;61320;52.008;4.530;2022-07-19T16:14:01;3.30;;;3.30;;
73132;SDS011;61320;52.008;4.530;2022-07-19T16:16:27;3.50;;;3.50;;
73132;SDS011;61320;52.008;4.530;2022-07-19T16:18:53;3.23;;;3.23;;
73132;SDS011;61320;52.008;4.530;2022-07-19T16:21:19;3.08;;;3.08;;
73132;SDS011;61320;52.008;4.530;2022-07-19T16:23:45;3.20;;;3.20;;
73132;SDS011;61320;52.008;4.530;2022-07-19T16:26:10;3.53;;;3.53;;
73132;SDS011;61320;52.008;4.530;2022-07-19T16:28:36;3.34;;;3.34;;
73132;SDS011;61320;52.008;4.530;2022-07-19T16:31:02;3.33;;;3.33;;
73132;SDS011;61320;52.008;4.530;2022-07-19T16:33:29;3.69;;;3.69;;
73132;SDS011;61320;52.008;4.530;2022-07-19T16:35:54;3.46;;;3.46;;
73132;SDS011;61320;52.008;4.530;2022-07-19T16:38:20;3.69;;;3.69;;
73132;SDS011;61320;52.008;4.530;2022-07-19T16:40:45;3.69;;;3.69;;
73132;SDS011;61320;52.008;4.530;2022-07-19T16:43:11;3.70;;;3.70;;
73132;SDS011;61320;52.008;4.530;2022-07-19T16:45:37;3.69;;;3.69;;
73132;SDS011;61320;52.008;4.530;2022-07-19T16:48:04;3.89;;;3.89;;
73132;SDS011;61320;52.008;4.530;2022-07-19T16:50:30;3.71;;;3.71;;
73132;SDS011;61320;52.008;4.530;2022-07-19T16:52:55;3.86;;;3.86;;
73132;SDS011;61320;52.008;4.530;2022-07-19T16:55:21;4.15;;;4.15;;
73132;SDS011;61320;52.008;4.530;2022-07-19T16:57:46;4.01;;;4.01;;
73132;SDS011;61320;52.008;4.530;2022-07-19T17:00:12;3.99;;;3.99;;
73132;SDS011;61320;52.008;4.530;2022-07-19T17:02:37;4.34;;;4.34;;
73132;SDS011;61320;52.008;4.530;2022-07-19T17:05:05;3.88;;;3.88;;
73132;SDS011;61320;52.008;4.530;2022-07-19T17:07:31;4.02;;;4.02;;
73132;SDS011;61320;52.008;4.530;2022-07-19T17:09:56;3.78;;;3.78;;
73132;SDS011;61320;52.008;4.530;2022-07-19T17:12:22;3.92;;;3.92;;
73132;SDS011;61320;52.008;4.530;2022-07-19T17:14:47;3.84;;;3.84;;
73132;SDS011;61320;52.008;4.530;2022-07-19T17:17:13;3.69;;;3.69;;
73132;SDS011;61320;52.008;4.530;2022-07-19T17:19:38;4.23;;;4.23;;
73132;SDS011;61320;52.008;4.530;2022-07-19T17:22:04;4.19;;;4.19;;
73132;SDS011;61320;52.008;4.530;2022-07-19T17:24:29;4.12;;;4.12;;
73132;SDS011;61320;52.008;4.530;2022-07-19T17:26:54;4.17;;;4.17;;
73132;SDS011;61320;52.008;4.530;2022-07-19T17:29:23;4.05;;;4.05;;
73132;SDS011;61320;52.008;4.530;2022-07-19T17:31:49;3.97;;;3.97;;
73132;SDS011;61320;52.008;4.530;2022-07-19T17:34:15;3.93;;;3.93;;
73132;SDS011;61320;52.008;4.530;2022-07-19T17:36:40;4.11;;;4.11;;
73132;SDS011;61320;52.008;4.530;2022-07-19T17:39:06;3.96;;;3.96;;
73132;SDS011;61320;52.008;4.530;2022-07-19T17:41:33;4.13;;;4.13;;
73132;SDS011;61320;52.008;4.530;2022-07-19T17:43:59;4.02;;;4.02;;
73132;SDS011;61320;52.008;4.530;2022-07-19T17:46:24;3.87;;;3.87;;
73132;SDS011;61320;52.008;4.530;2022-07-19T17:48:50;3.79;;;3.79;;
73132;SDS011;61320;52.008;4.530;2022-07-19T17:51:15;3.73;;;3.73;;
73132;SDS011;61320;52.008;4.530;2022-07-19T17:53:40;4.14;;;4.14;;
73132;SDS011;61320;52.008;4.530;2022-07-19T17:56:06;4.25;;;4.25;;
73132;SDS011;61320;52.008;4.530;2022-07-19T17:58:32;4.14;;;4.14;;
73132;SDS011;61320;52.008;4.530;2022-07-19T18:00:58;4.11;;;4.11;;
73132;SDS011;61320;52.008;4.530;2022-07-19T18:03:23;3.89;;;3.89;;
73132;SDS011;61320;52.008;4.530;2022-07-19T18:05:49;4.33;;;4.33;;
73132;SDS011;61320;52.008;4.530;2022-07-19T18:08:14;4.12;;;4.12;;
73132;SDS011;61320;52.008;4.530;2022-07-19T18:10:40;4.24;;;4.24;;
73132;SDS011;61320;52.008;4.530;2022-07-19T18:13:05;4.07;;;4.07;;
73132;SDS011;61320;52.008;4.530;2022-07-19T18:15:31;4.35;;;4.35;;
73132;SDS011;61320;52.008;4.530;2022-07-19T18:17:57;4.19;;;4.19;;
73132;SDS011;61320;52.008;4.530;2022-07-19T18:20:22;4.33;;;4.33;;
73132;SDS011;61320;52.008;4.530;2022-07-19T18:22:48;3.87;;;3.87;;
73132;SDS011;61320;52.008;4.530;2022-07-19T18:25:14;4.10;;;4.10;;
73132;SDS011;61320;52.008;4.530;2022-07-19T18:27:39;4.11;;;4.11;;
73132;SDS011;61320;52.008;4.530;2022-07-19T18:30:06;3.91;;;3.91;;
73132;SDS011;61320;52.008;4.530;2022-07-19T18:32:32;4.36;;;4.36;;
73132;SDS011;61320;52.008;4.530;2022-07-19T18:34:57;4.17;;;4.17;;
73132;SDS011;61320;52.008;4.530;2022-07-19T18:37:23;3.95;;;3.95;;
73132;SDS011;61320;52.008;4.530;2022-07-19T18:39:49;4.00;;;4.00;;
73132;SDS011;61320;52.008;4.530;2022-07-19T18:42:15;3.95;;;3.95;;
73132;SDS011;61320;52.008;4.530;2022-07-19T18:44:40;3.75;;;3.75;;
73132;SDS011;61320;52.008;4.530;2022-07-19T18:47:06;3.95;;;3.95;;
73132;SDS011;61320;52.008;4.530;2022-07-19T18:49:32;4.22;;;4.22;;
73132;SDS011;61320;52.008;4.530;2022-07-19T18:51:59;4.35;;;4.35;;
73132;SDS011;61320;52.008;4.530;2022-07-19T18:54:25;4.25;;;4.25;;
73132;SDS011;61320;52.008;4.530;2022-07-19T18:56:50;4.27;;;4.27;;
73132;SDS011;61320;52.008;4.530;2022-07-19T18:59:16;4.32;;;4.32;;
73132;SDS011;61320;52.008;4.530;2022-07-19T19:01:41;4.28;;;4.28;;
73132;SDS011;61320;52.008;4.530;2022-07-19T19:04:07;4.33;;;4.33;;
73132;SDS011;61320;52.008;4.530;2022-07-19T19:06:33;4.12;;;4.12;;
73132;SDS011;61320;52.008;4.530;2022-07-19T19:08:59;4.09;;;4.09;;
73132;SDS011;61320;52.008;4.530;2022-07-19T19:11:28;4.19;;;4.19;;
73132;SDS011;61320;52.008;4.530;2022-07-19T19:13:54;4.18;;;4.18;;
73132;SDS011;61320;52.008;4.530;2022-07-19T19:16:20;3.96;;;3.96;;
73132;SDS011;61320;52.008;4.530;2022-07-19T19:18:46;4.29;;;4.29;;
73132;SDS011;61320;52.008;4.530;2022-07-19T19:21:14;3.90;;;3.90;;
73132;SDS011;61320;52.008;4.530;2022-07-19T19:23:40;3.89;;;3.89;;
73132;SDS011;61320;52.008;4.530;2022-07-19T19:26:05;3.85;;;3.85;;
73132;SDS011;61320;52.008;4.530;2022-07-19T19:28:31;3.94;;;3.94;;
73132;SDS011;61320;52.008;4.530;2022-07-19T19:30:56;3.78;;;3.78;;
73132;SDS011;61320;52.008;4.530;2022-07-19T19:33:22;3.72;;;3.72;;
73132;SDS011;61320;52.008;4.530;2022-07-19T19:35:48;3.80;;;3.80;;
73132;SDS011;61320;52.008;4.530;2022-07-19T19:38:14;3.80;;;3.80;;
73132;SDS011;61320;52.008;4.530;2022-07-19T19:40:40;4.05;;;4.05;;
73132;SDS011;61320;52.008;4.530;2022-07-19T19:43:06;3.76;;;3.76;;
73132;SDS011;61320;52.008;4.530;2022-07-19T19:45:31;3.84;;;3.84;;
73132;SDS011;61320;52.008;4.530;2022-07-19T19:47:57;3.92;;;3.92;;
73132;SDS011;61320;52.008;4.530;2022-07-19T19:50:23;3.96;;;3.96;;
73132;SDS011;61320;52.008;4.530;2022-07-19T19:52:48;3.96;;;3.96;;
73132;SDS011;61320;52.008;4.530;2022-07-19T19:55:14;4.18;;;4.18;;
73132;SDS011;61320;52.008;4.530;2022-07-19T19:57:40;4.26;;;4.26;;
73132;SDS011;61320;52.008;4.530;2022-07-19T20:00:07;3.99;;;3.99;;
73132;SDS011;61320;52.008;4.530;2022-07-19T20:02:34;4.12;;;4.12;;
73132;SDS011;61320;52.008;4.530;2022-07-19T20:04:59;3.78;;;3.78;;
73132;SDS011;61320;52.008;4.530;2022-07-19T20:07:25;3.94;;;3.94;;
73132;SDS011;61320;52.008;4.530;2022-07-19T20:09:50;3.94;;;3.94;;
73132;SDS011;61320;52.008;4.530;2022-07-19T20:12:16;3.75;;;3.75;;
73132;SDS011;61320;52.008;4.530;2022-07-19T20:14:42;3.92;;;3.92;;
73132;SDS011;61320;52.008;4.530;2022-07-19T20:17:07;3.83;;;3.83;;
73132;SDS011;61320;52.008;4.530;2022-07-19T20:19:33;3.56;;;3.56;;
73132;SDS011;61320;52.008;4.530;2022-07-19T20:21:59;3.80;;;3.80;;
73132;SDS011;61320;52.008;4.530;2022-07-19T20:24:25;4.22;;;4.22;;
73132;SDS011;61320;52.008;4.530;2022-07-19T20:26:50;3.95;;;3.95;;
73132;SDS011;61320;52.008;4.530;2022-07-19T20:29:16;3.90;;;3.90;;
73132;SDS011;61320;52.008;4.530;2022-07-19T20:31:41;4.07;;;4.07;;
73132;SDS011;61320;52.008;4.530;2022-07-19T20:34:07;4.26;;;4.26;;
73132;SDS011;61320;52.008;4.530;2022-07-19T20:36:32;3.92;;;3.92;;
73132;SDS011;61320;52.008;4.530;2022-07-19T20:38:58;4.32;;;4.32;;
73132;SDS011;61320;52.008;4.530;2022-07-19T20:41:23;4.10;;;4.10;;
73132;SDS011;61320;52.008;4.530;2022-07-19T20:43:50;4.32;;;4.32;;
73132;SDS011;61320;52.008;4.530;2022-07-19T20:46:16;4.35;;;4.35;;
73132;SDS011;61320;52.008;4.530;2022-07-19T20:48:41;4.08;;;4.08;;
73132;SDS011;61320;52.008;4.530;2022-07-19T20:51:07;4.18;;;4.18;;
73132;SDS011;61320;52.008;4.530;2022-07-19T20:53:32;4.37;;;4.37;;
73132;SDS011;61320;52.008;4.530;2022-07-19T20:55:58;4.34;;;4.34;;
73132;SDS011;61320;52.008;4.530;2022-07-19T20:58:24;4.50;;;4.50;;
73132;SDS011;61320;52.008;4.530;2022-07-19T21:00:49;4.32;;;4.32;;
73132;SDS011;61320;52.008;4.530;2022-07-19T21:03:15;4.21;;;4.21;;
73132;SDS011;61320;52.008;4.530;2022-07-19T21:05:40;4.49;;;4.49;;
73132;SDS011;61320;52.008;4.530;2022-07-19T21:08:06;4.35;;;4.35;;
73132;SDS011;61320;52.008;4.530;2022-07-19T21:10:32;4.45;;;4.45;;
73132;SDS011;61320;52.008;4.530;2022-07-19T21:12:57;4.61;;;4.61;;
73132;SDS011;61320;52.008;4.530;2022-07-19T21:15:23;4.67;;;4.67;;
73132;SDS011;61320;52.008;4.530;2022-07-19T21:17:49;4.68;;;4.68;;
73132;SDS011;61320;52.008;4.530;2022-07-19T21:20:15;4.48;;;4.48;;
73132;SDS011;61320;52.008;4.530;2022-07-19T21:22:41;4.57;;;4.57;;
73132;SDS011;61320;52.008;4.530;2022-07-19T21:25:09;4.36;;;4.36;;
73132;SDS011;61320;52.008;4.530;2022-07-19T21:27:34;4.55;;;4.55;;
73132;SDS011;61320;52.008;4.530;2022-07-19T21:30:00;4.51;;;4.51;;
73132;SDS011;61320;52.008;4.530;2022-07-19T21:32:26;4.74;;;4.74;;
73132;SDS011;61320;52.008;4.530;2022-07-19T21:34:52;4.41;;;4.41;;
73132;SDS011;61320;52.008;4.530;2022-07-19T21:37:18;4.61;;;4.61;;
73132;SDS011;61320;52.008;4.530;2022-07-19T21:39:44;4.51;;;4.51;;
73132;SDS011;61320;52.008;4.530;2022-07-19T21:42:10;4.61;;;4.61;;
73132;SDS011;61320;52.008;4.530;2022-07-19T21:44:35;4.83;;;4.83;;
73132;SDS011;61320;52.008;4.530;2022-07-19T21:47:00;4.66;;;4.66;;
73132;SDS011;61320;52.008;4.530;2022-07-19T21:49:29;4.60;;;4.60;;
73132;SDS011;61320;52.008;4.530;2022-07-19T21:51:55;4.79;;;4.79;;
73132;SDS011;61320;52.008;4.530;2022-07-19T21:54:20;4.99;;;4.99;;
73132;SDS011;61320;52.008;4.530;2022-07-19T21:56:46;4.86;;;4.86;;
73132;SDS011;61320;52.008;4.530;2022-07-19T21:59:11;4.90;;;4.90;;
73132;SDS011;61320;52.008;4.530;2022-07-19T22:01:37;4.94;;;4.94;;
73132;SDS011;61320;52.008;4.530;2022-07-19T22:04:02;4.94;;;4.94;;
73132;SDS011;61320;52.008;4.530;2022-07-19T22:06:29;4.95;;;4.95;;
73132;SDS011;61320;52.008;4.530;2022-07-19T22:08:56;5.32;;;5.32;;
73132;SDS011;61320;52.008;4.530;2022-07-19T22:11:22;4.92;;;4.92;;
73132;SDS011;61320;52.008;4.530;2022-07-19T22:13:48;5.02;;;5.02;;
73132;SDS011;61320;52.008;4.530;2022-07-19T22:16:16;5.33;;;5.33;;
73132;SDS011;61320;52.008;4.530;2022-07-19T22:18:42;5.00;;;5.00;;
73132;SDS011;61320;52.008;4.530;2022-07-19T22:21:08;4.92;;;4.92;;
73132;SDS011;61320;52.008;4.530;2022-07-19T22:23:34;5.01;;;5.01;;
73132;SDS011;61320;52.008;4.530;2022-07-19T22:26:00;5.00;;;5.00;;
73132;SDS011;61320;52.008;4.530;2022-07-19T22:28:26;5.15;;;5.15;;
73132;SDS011;61320;52.008;4.530;2022-07-19T22:30:51;5.08;;;5.08;;
73132;SDS011;61320;52.008;4.530;2022-07-19T22:33:17;5.05;;;5.05;;
73132;SDS011;61320;52.008;4.530;2022-07-19T22:35:43;5.35;;;5.35;;
73132;SDS011;61320;52.008;4.530;2022-07-19T22:38:09;5.04;;;5.04;;
73132;SDS011;61320;52.008;4.530;2022-07-19T22:40:35;5.26;;;5.26;;
73132;SDS011;61320;52.008;4.530;2022-07-19T22:43:01;5.48;;;5.48;;
73132;SDS011;61320;52.008;4.530;2022-07-19T22:45:26;5.62;;;5.62;;
73132;SDS011;61320;52.008;4.530;2022-07-19T22:47:52;5.45;;;5.45;;
73132;SDS011;61320;52.008;4.530;2022-07-19T22:50:18;5.36;;;5.36;;
73132;SDS011;61320;52.008;4.530;2022-07-19T22:52:45;5.56;;;5.56;;
73132;SDS011;61320;52.008;4.530;2022-07-19T22:55:10;5.55;;;5.55;;
73132;SDS011;61320;52.008;4.530;2022-07-19T22:57:36;5.83;;;5.83;;
73132;SDS011;61320;52.008;4.530;2022-07-19T23:00:03;5.72;;;5.72;;
73132;SDS011;61320;52.008;4.530;2022-07-19T23:02:30;5.85;;;5.85;;
73132;SDS011;61320;52.008;4.530;2022-07-19T23:04:55;5.48;;;5.48;;
73132;SDS011;61320;52.008;4.530;2022-07-19T23:07:21;5.79;;;5.79;;
73132;SDS011;61320;52.008;4.530;2022-07-19T23:09:46;5.53;;;5.53;;
73132;SDS011;61320;52.008;4.530;2022-07-19T23:12:12;5.58;;;5.58;;
73132;SDS011;61320;52.008;4.530;2022-07-19T23:14:37;5.66;;;5.66;;
73132;SDS011;61320;52.008;4.530;2022-07-19T23:17:03;5.64;;;5.64;;
73132;SDS011;61320;52.008;4.530;2022-07-19T23:19:28;5.71;;;5.71;;
73132;SDS011;61320;52.008;4.530;2022-07-19T23:21:54;5.32;;;5.32;;
73132;SDS011;61320;52.008;4.530;2022-07-19T23:24:19;5.78;;;5.78;;
73132;SDS011;61320;52.008;4.530;2022-07-19T23:26:44;5.64;;;5.64;;
73132;SDS011;61320;52.008;4.530;2022-07-19T23:29:10;5.47;;;5.47;;
73132;SDS011;61320;52.008;4.530;2022-07-19T23:31:35;5.78;;;5.78;;
73132;SDS011;61320;52.008;4.530;2022-07-19T23:34:01;5.71;;;5.71;;
73132;SDS011;61320;52.008;4.530;2022-07-19T23:36:26;5.87;;;5.87;;
73132;SDS011;61320;52.008;4.530;2022-07-19T23:38:52;5.66;;;5.66;;
73132;SDS011;61320;52.008;4.530;2022-07-19T23:41:17;5.76;;;5.76;;
73132;SDS011;61320;52.008;4.530;2022-07-19T23:43:43;6.02;;;6.02;;
73132;SDS011;61320;52.008;4.530;2022-07-19T23:46:08;5.88;;;5.88;;
73132;SDS011;61320;52.008;4.530;2022-07-19T23:48:37;5.77;;;5.77;;
73132;SDS011;61320;52.008;4.530;2022-07-19T23:51:05;5.88;;;5.88;;
73132;SDS011;61320;52.008;4.530;2022-07-19T23:53:31;5.77;;;5.77;;
73132;SDS011;61320;52.008;4.530;2022-07-19T23:55:57;5.97;;;5.97;;
73132;SDS011;61320;52.008;4.530;2022-07-19T23:58:22;6.55;;;6.55;;
